Larkspur — C6BR6 — position and weather

sailwx.info

Track history (hours):
 
Tides and Currents Weather Stations Pressure Air Temp Water Temp Dewpoint Dewpoint Depression Visibility Wind Speed Wind Dir Waves Ship Positions

Larkspur

Operator: Transeuropa Lines

Last reported at 2019-Aug-27 06:29 UTC. Time now 2019-Sep-21 11:20 UTC.
Position N 34°48' E 139°47'.
Warning: this ship's position is 25 days out of date.

Length 225 m; draft 8.1 m.

Type: Tanker. MMSI: 311000344.

Date/timePositionNaut miles runAvg speedWind from/ knotsBaromVisibWave heightAir tempDewpointWater temp
2019-Aug-27 06:29N 34°48' E 139°47'1013.9
2019-Aug-27 05:45N 34°57' E 139°41'413.5
2019-Aug-27 05:27N 35°01' E 139°41'613.2
2019-Aug-27 04:58N 35°07' E 139°44'612.6
2019-Aug-27 04:30N 35°13' E 139°46'612.1
2019-Aug-27 04:00N 35°18' E 139°44'510.4
2019-Aug-27 03:30N 35°23' E 139°43'611.9
2019-Aug-27 03:00N 35°28' E 139°47'3 5.1
2019-Aug-27 02:30N 35°31' E 139°46'1 1.4
2019-Aug-27 02:00N 35°31' E 139°46'0 0.0
2019-Aug-27 01:29N 35°31' E 139°46'0 0.0
2019-Aug-27 00:38N 35°31' E 139°46'0 0.0
2019-Aug-26 20:08N 35°31' E 139°46'0 0.0
2019-Aug-26 19:32N 35°31' E 139°46'0 0.0
2019-Aug-26 19:26N 35°31' E 139°46'0 0.0
2019-Aug-26 18:38N 35°31' E 139°46'0 0.0
2019-Aug-26 17:44N 35°31' E 139°46'0 0.0
2019-Aug-26 13:20N 35°31' E 139°46'0 0.0
2019-Aug-26 05:02N 35°31' E 139°46'0 0.0
2019-Aug-26 04:50N 35°31' E 139°46'0 0.0
2019-Aug-26 04:26N 35°31' E 139°46'0 0.0
2019-Aug-26 02:32N 35°31' E 139°46'0 0.0
2019-Aug-26 02:20N 35°31' E 139°46'0 0.0
2019-Aug-26 01:30N 35°31' E 139°46'0 0.0
2019-Aug-26 01:00N 35°31' E 139°46'0 0.1
2019-Aug-26 00:30N 35°31' E 139°46'1 1.8
2019-Aug-26 00:00N 35°30' E 139°45'1 1.2
2019-Aug-25 23:28N 35°30' E 139°45'0 0.0
2019-Aug-25 22:58N 35°30' E 139°45'0 0.0
2019-Aug-25 21:40N 35°30' E 139°45'0 0.0
2019-Aug-25 21:10N 35°30' E 139°45'0 0.0
2019-Aug-25 20:49N 35°30' E 139°45'0 0.0
2019-Aug-25 19:52N 35°30' E 139°45'0 0.0
2019-Aug-25 10:13N 35°30' E 139°45'0 0.0
2019-Aug-25 08:58N 35°30' E 139°45'0 0.0
2019-Aug-25 07:52N 35°30' E 139°45'0 0.0
2019-Aug-25 06:52N 35°30' E 139°45'0 0.0
2019-Aug-25 06:22N 35°30' E 139°45'0 0.0
2019-Aug-25 05:58N 35°30' E 139°45'0 0.0
2019-Aug-25 05:25N 35°30' E 139°45'0 0.0
2019-Aug-25 04:49N 35°30' E 139°45'0 0.0
2019-Aug-25 04:25N 35°30' E 139°45'0 0.0
2019-Aug-25 03:55N 35°30' E 139°45'0 0.0
2019-Aug-25 03:28N 35°30' E 139°45'0 0.0
2019-Aug-25 02:52N 35°30' E 139°45'0 0.0
2019-Aug-25 02:25N 35°30' E 139°45'0 0.0
2019-Aug-25 01:52N 35°30' E 139°45'0 0.0
2019-Aug-25 01:30N 35°30' E 139°45'0 0.2
2019-Aug-25 01:00N 35°30' E 139°45'2 4.1
2019-Aug-25 00:31N 35°29' E 139°42'3 5.5
2019-Aug-25 00:01N 35°27' E 139°44'3 6.2
2019-Aug-24 23:30N 35°24' E 139°46'612.5
2019-Aug-24 23:00N 35°18' E 139°44'612.3
2019-Aug-24 22:31N 35°12' E 139°47'612.1
2019-Aug-24 22:00N 35°06' E 139°46'714.2
2019-Aug-24 21:30N 34°60' E 139°42'5 1.1
2019-Aug-24 17:08N 34°55' E 139°41'0 0.0
2019-Aug-24 16:19N 34°55' E 139°41'2 0.8
2019-Aug-24 13:35N 34°56' E 139°38'1 5.3
2019-Aug-24 13:28N 34°55' E 139°39'  
Track history (hours):
 
Tides and Currents Weather Stations Pressure Air Temp Water Temp Dewpoint Dewpoint Depression Visibility Wind Speed Wind Dir Waves Ship Positions

Larkspur

Operator: Transeuropa Lines

Last reported at 2019-Aug-27 06:29 UTC. Time now 2019-Sep-21 11:20 UTC.
Position N 34°48' E 139°47'.
Warning: this ship's position is 25 days out of date.

Length 225 m; draft 8.1 m.

Type: Tanker. MMSI: 311000344.

Date/timePositionNaut miles runAvg speedWind from/ knotsBaromVisibWave heightAir tempDewpointWater temp
2019-Aug-27 06:29N 34°48' E 139°47'1013.9
2019-Aug-27 05:45N 34°57' E 139°41'413.5
2019-Aug-27 05:27N 35°01' E 139°41'613.2
2019-Aug-27 04:58N 35°07' E 139°44'612.6
2019-Aug-27 04:30N 35°13' E 139°46'612.1
2019-Aug-27 04:00N 35°18' E 139°44'510.4
2019-Aug-27 03:30N 35°23' E 139°43'611.9
2019-Aug-27 03:00N 35°28' E 139°47'3 5.1
2019-Aug-27 02:30N 35°31' E 139°46'1 1.4
2019-Aug-27 02:00N 35°31' E 139°46'0 0.0
2019-Aug-27 01:29N 35°31' E 139°46'0 0.0
2019-Aug-27 00:38N 35°31' E 139°46'0 0.0
2019-Aug-26 20:08N 35°31' E 139°46'0 0.0
2019-Aug-26 19:32N 35°31' E 139°46'0 0.0
2019-Aug-26 19:26N 35°31' E 139°46'0 0.0
2019-Aug-26 18:38N 35°31' E 139°46'0 0.0
2019-Aug-26 17:44N 35°31' E 139°46'0 0.0
2019-Aug-26 13:20N 35°31' E 139°46'0 0.0
2019-Aug-26 05:02N 35°31' E 139°46'0 0.0
2019-Aug-26 04:50N 35°31' E 139°46'0 0.0
2019-Aug-26 04:26N 35°31' E 139°46'0 0.0
2019-Aug-26 02:32N 35°31' E 139°46'0 0.0
2019-Aug-26 02:20N 35°31' E 139°46'0 0.0
2019-Aug-26 01:30N 35°31' E 139°46'0 0.0
2019-Aug-26 01:00N 35°31' E 139°46'0 0.1
2019-Aug-26 00:30N 35°31' E 139°46'1 1.8
2019-Aug-26 00:00N 35°30' E 139°45'1 1.2
2019-Aug-25 23:28N 35°30' E 139°45'0 0.0
2019-Aug-25 22:58N 35°30' E 139°45'0 0.0
2019-Aug-25 21:40N 35°30' E 139°45'0 0.0
2019-Aug-25 21:10N 35°30' E 139°45'0 0.0
2019-Aug-25 20:49N 35°30' E 139°45'0 0.0
2019-Aug-25 19:52N 35°30' E 139°45'0 0.0
2019-Aug-25 10:13N 35°30' E 139°45'0 0.0
2019-Aug-25 08:58N 35°30' E 139°45'0 0.0
2019-Aug-25 07:52N 35°30' E 139°45'0 0.0
2019-Aug-25 06:52N 35°30' E 139°45'0 0.0
2019-Aug-25 06:22N 35°30' E 139°45'0 0.0
2019-Aug-25 05:58N 35°30' E 139°45'0 0.0
2019-Aug-25 05:25N 35°30' E 139°45'0 0.0
2019-Aug-25 04:49N 35°30' E 139°45'0 0.0
2019-Aug-25 04:25N 35°30' E 139°45'0 0.0
2019-Aug-25 03:55N 35°30' E 139°45'0 0.0
2019-Aug-25 03:28N 35°30' E 139°45'0 0.0
2019-Aug-25 02:52N 35°30' E 139°45'0 0.0
2019-Aug-25 02:25N 35°30' E 139°45'0 0.0
2019-Aug-25 01:52N 35°30' E 139°45'0 0.0
2019-Aug-25 01:30N 35°30' E 139°45'0 0.2
2019-Aug-25 01:00N 35°30' E 139°45'2 4.1
2019-Aug-25 00:31N 35°29' E 139°42'3 5.5
2019-Aug-25 00:01N 35°27' E 139°44'3 6.2
2019-Aug-24 23:30N 35°24' E 139°46'612.5
2019-Aug-24 23:00N 35°18' E 139°44'612.3
2019-Aug-24 22:31N 35°12' E 139°47'612.1
2019-Aug-24 22:00N 35°06' E 139°46'714.2
2019-Aug-24 21:30N 34°60' E 139°42'5 1.1
2019-Aug-24 17:08N 34°55' E 139°41'0 0.0
2019-Aug-24 16:19N 34°55' E 139°41'2 0.8
2019-Aug-24 13:35N 34°56' E 139°38'1 5.3
2019-Aug-24 13:28N 34°55' E 139°39'  

Dump ship's entire track history